Park Hill, OK

8:50 AM CDT on May 26, 2015 (GMT -0500)
Tenkiller Harbor | | Change Station
CLOSE
Current Station
Personal Weather Station
Location: Park Hill, OK
Elevation: 751 ft
Nearby Weather Stations

Elev 751 ft 35.65 °N, 95.04 °W | Updated 32 seconds ago

Overcast
Overcast
63.6 °F
Feels Like 63.6 °F
N
2.3
Wind Variable Wind from South
Gusts 2.3 mph

Today
High -- | Low -- °F
--% Chance of Precip.
Yesterday
High -- | Low -- °F
Precip. -- in
6:08 AM 8:26 PM
First Quarter, 58% visible
Pressure 29.95 in
Visibility 10.0 miles
Clouds Overcast 1200 ft
Dew Point 60 °F
Humidity 88%
Rainfall 0.00 in
Snow Depth Not available.
UV 0 out of 12
Pollen 7.00 out of 12
Air Quality Not available.
Flu Activity Sporadic
METAR KMKO 261253Z AUTO 23006KT 10SM OVC012 17/16 A2996 RMK AO2 SLP142 T01670161

More Conditions Fewer Conditions

Pressure 29.95 in
Visibility 10.0 miles
Clouds Overcast 1200 ft
Dew Point 60 °F
Humidity 88%
Rainfall 0.00 in
Snow Depth Not available.
UV 0 out of 12
Pollen 7.00 out of 12
Air Quality Not available.
Flu Activity Sporadic
METAR KMKO 261253Z AUTO 23006KT 10SM OVC012 17/16 A2996 RMK AO2 SLP142 T01670161

More Conditions Fewer Conditions

10-Day Weather Forecast

Almanac

Astronomy

May. 26, 2015 Rise Set
Actual Time
Civil Twilight
Nautical Twilight
Astronomical Twilight
Moon
Length of Visible Light
Length of Day
Tomorrow will be .
, % of the Moon is Illuminated

Today's Extremes

State Highs State Lows

Community

WunderPhotos

Upload Photos

1,824,342 photos uploaded!

WunderBlogs® & News

Nearby

Air Quality

  Air Quality AQ Index Pollutant
Not available.

Snow Depth

Station Depth Elevation

Earthquake Activity

City Distance Mag. Time & Date
Minimum magnitude displayed is 2.5.

Coastal Water Temperatures

Place Temperature

Stations

Nearby Weather Stations

Station Location Temp. Windchill Dew Point Humidity Wind Precip. Elev Updated Type